Tuesday, April 28, 2015, 7:47 AM EDT

KMDT, Harrisburg International Airport

Location: Middletown, PA, United States Lat: 40.2
Local Time: 7:47 AM EDT (11:47 GMT) Lon: -76.767
Time Zone: US/Eastern Elev: 308 ft

Show me the last for .
Show Decoded

2015-04-28 06:56 METAR KMDT 281056Z 31009KT 10SM FEW050 09/03 A2989 RMK AO2 SLP121 T00940028 =
2015-04-28 05:56 METAR KMDT 280956Z 33010KT 10SM BKN035 10/02 A2987 =
2015-04-28 04:56 METAR KMDT 280856Z 30009KT 10SM BKN045 BKN060 09/03 A2986 RMK AO2 SLP111
                 T00940033 55004 =
2015-04-28 03:56 METAR KMDT 280756Z 30012KT 10SM SCT040 BKN060 09/03 A2986 =
2015-04-28 02:56 METAR KMDT 280656Z 30009KT 10SM BKN040 OVC060 10/03 A2987 RMK AO2 SLP114
                 T01000028 =
2015-04-28 01:56 METAR KMDT 280556Z 32012KT 10SM BKN037 OVC100 10/02 A2987 =
2015-04-28 00:56 METAR KMDT 280456Z 33014KT 10SM BKN040 BKN110 10/01 A2986 RMK AO2 SLP112
                 T01000011 401560050 =
2015-04-27 23:56 METAR KMDT 280356Z 33012KT 10SM BKN060 11/01 A2986 RMK AO2 SLP112 T01060011 =
2015-04-27 22:56 METAR KMDT 280256Z 32008KT 10SM FEW055 FEW100 09/01 A2985 RMK AO2 SLP107 60000
                 T00940006 51012 =
2015-04-27 21:56 METAR KMDT 280156Z 32010KT 10SM FEW055 SCT080 BKN150 11/03 A2984 RMK AO2
                 RAB0057E06 SLP106 P0000 T01060028 =
2015-04-27 20:56 METAR KMDT 280056Z 32016KT 10SM SCT048 BKN065 BKN085 11/03 A2983 =
2015-04-27 19:56 METAR KMDT 272356Z 33012KT 10SM FEW049 BKN065 BKN085 12/01 A2981 RMK AO2 SLP095
                 T01220011 10156 20122 53017 =
2015-04-27 18:56 METAR KMDT 272256Z 30014KT 10SM BKN065 BKN080 13/02 A2979 =
2015-04-27 17:56 METAR KMDT 272156Z 32011KT 10SM BKN070 BKN090 13/M01 A2978 =
2015-04-27 16:56 METAR KMDT 272056Z 35009KT 10SM SCT060 OVC085 13/M01 A2976 RMK AO2 SLP078
                 T01331011 55003 =
2015-04-27 15:56 METAR KMDT 271956Z 33012KT 10SM OVC075 13/M02 A2975 RMK AO2 SLP076 T01331017 =
2015-04-27 14:56 METAR KMDT 271856Z 30012KT 10SM SCT065 BKN080 13/00 A2975 RMK AO2 SLP077
                 T01330000 =
2015-04-27 12:56 METAR KMDT 271656Z 29012KT 10SM SCT060 OVC075 13/00 A2977 RMK AO2 SLP083
                 T01330000 =
2015-04-27 11:56 METAR KMDT 271556Z 29011KT 10SM OVC070 12/00 A2977 =
2015-04-27 10:56 METAR KMDT 271456Z 30010KT 10SM SCT050 13/01 A2977 =
2015-04-27 09:56 METAR KMDT 271356Z 31009KT 10SM SCT045 BKN080 12/M01 A2976 =
2015-04-27 08:56 METAR KMDT 271256Z 29008KT 10SM BKN075 11/01 A2976 =
2015-04-27 07:56 METAR KMDT 271156Z 31007KT 10SM OVC075 09/01 A2976 =

Support USWX by starting your Amazon purchase here.